sensor_id;sensor_type;location;lat;lon;timestamp;P1;durP1;ratioP1;P2;durP2;ratioP2
31990;SDS011;18508;49.386;8.370;2023-04-29T00:00:58;7.22;;;4.03;;
31990;SDS011;18508;49.386;8.370;2023-04-29T00:03:28;7.00;;;4.40;;
31990;SDS011;18508;49.386;8.370;2023-04-29T00:05:58;8.13;;;4.40;;
31990;SDS011;18508;49.386;8.370;2023-04-29T00:08:29;5.95;;;3.22;;
31990;SDS011;18508;49.386;8.370;2023-04-29T00:10:58;7.55;;;4.10;;
31990;SDS011;18508;49.386;8.370;2023-04-29T00:13:27;7.28;;;3.88;;
31990;SDS011;18508;49.386;8.370;2023-04-29T00:15:55;8.52;;;4.60;;
31990;SDS011;18508;49.386;8.370;2023-04-29T00:18:23;7.93;;;4.70;;
31990;SDS011;18508;49.386;8.370;2023-04-29T00:20:53;6.68;;;4.10;;
31990;SDS011;18508;49.386;8.370;2023-04-29T00:23:21;8.00;;;4.38;;
31990;SDS011;18508;49.386;8.370;2023-04-29T00:25:50;7.80;;;3.83;;
31990;SDS011;18508;49.386;8.370;2023-04-29T00:28:18;7.53;;;4.05;;
31990;SDS011;18508;49.386;8.370;2023-04-29T00:30:47;6.15;;;4.00;;
31990;SDS011;18508;49.386;8.370;2023-04-29T00:33:15;7.28;;;4.55;;
31990;SDS011;18508;49.386;8.370;2023-04-29T00:35:43;7.28;;;4.25;;
31990;SDS011;18508;49.386;8.370;2023-04-29T00:38:14;6.90;;;3.90;;
31990;SDS011;18508;49.386;8.370;2023-04-29T00:40:42;6.72;;;3.65;;
31990;SDS011;18508;49.386;8.370;2023-04-29T00:43:11;9.15;;;5.03;;
31990;SDS011;18508;49.386;8.370;2023-04-29T00:45:39;7.15;;;4.07;;
31990;SDS011;18508;49.386;8.370;2023-04-29T00:48:09;7.80;;;4.00;;
31990;SDS011;18508;49.386;8.370;2023-04-29T00:50:37;6.85;;;4.10;;
31990;SDS011;18508;49.386;8.370;2023-04-29T00:53:07;7.45;;;3.90;;
31990;SDS011;18508;49.386;8.370;2023-04-29T00:55:38;7.30;;;4.50;;
31990;SDS011;18508;49.386;8.370;2023-04-29T00:58:08;7.45;;;3.95;;
31990;SDS011;18508;49.386;8.370;2023-04-29T01:00:39;7.88;;;4.10;;
31990;SDS011;18508;49.386;8.370;2023-04-29T01:03:15;8.90;;;4.00;;
31990;SDS011;18508;49.386;8.370;2023-04-29T01:05:45;6.63;;;3.97;;
31990;SDS011;18508;49.386;8.370;2023-04-29T01:08:21;6.38;;;3.85;;
31990;SDS011;18508;49.386;8.370;2023-04-29T01:11:04;5.95;;;4.28;;
31990;SDS011;18508;49.386;8.370;2023-04-29T01:13:36;6.78;;;3.72;;
31990;SDS011;18508;49.386;8.370;2023-04-29T01:16:10;6.53;;;4.03;;
31990;SDS011;18508;49.386;8.370;2023-04-29T01:18:45;8.63;;;3.67;;
31990;SDS011;18508;49.386;8.370;2023-04-29T01:21:19;6.03;;;3.83;;
31990;SDS011;18508;49.386;8.370;2023-04-29T01:23:50;5.68;;;4.00;;
31990;SDS011;18508;49.386;8.370;2023-04-29T01:26:21;8.88;;;4.35;;
31990;SDS011;18508;49.386;8.370;2023-04-29T01:28:53;5.13;;;3.50;;
31990;SDS011;18508;49.386;8.370;2023-04-29T01:31:30;6.28;;;3.63;;
31990;SDS011;18508;49.386;8.370;2023-04-29T01:34:03;7.00;;;4.00;;
31990;SDS011;18508;49.386;8.370;2023-04-29T01:36:40;6.75;;;4.18;;
31990;SDS011;18508;49.386;8.370;2023-04-29T01:39:17;7.72;;;4.03;;
31990;SDS011;18508;49.386;8.370;2023-04-29T01:41:52;8.95;;;4.15;;
31990;SDS011;18508;49.386;8.370;2023-04-29T01:44:27;7.65;;;3.95;;
31990;SDS011;18508;49.386;8.370;2023-04-29T01:46:59;4.93;;;3.60;;
31990;SDS011;18508;49.386;8.370;2023-04-29T01:49:29;5.10;;;3.38;;
31990;SDS011;18508;49.386;8.370;2023-04-29T01:52:01;5.57;;;3.83;;
31990;SDS011;18508;49.386;8.370;2023-04-29T01:54:31;7.55;;;3.78;;
31990;SDS011;18508;49.386;8.370;2023-04-29T01:57:01;8.43;;;4.05;;
31990;SDS011;18508;49.386;8.370;2023-04-29T01:59:31;6.03;;;4.28;;
31990;SDS011;18508;49.386;8.370;2023-04-29T02:01:59;6.68;;;3.88;;
31990;SDS011;18508;49.386;8.370;2023-04-29T02:04:28;7.07;;;3.80;;
31990;SDS011;18508;49.386;8.370;2023-04-29T02:06:59;7.03;;;4.07;;
31990;SDS011;18508;49.386;8.370;2023-04-29T02:09:28;6.38;;;4.40;;
31990;SDS011;18508;49.386;8.370;2023-04-29T02:11:58;7.57;;;4.63;;
31990;SDS011;18508;49.386;8.370;2023-04-29T02:14:26;7.75;;;4.28;;
31990;SDS011;18508;49.386;8.370;2023-04-29T02:16:55;6.40;;;4.10;;
31990;SDS011;18508;49.386;8.370;2023-04-29T02:19:24;7.65;;;4.88;;
31990;SDS011;18508;49.386;8.370;2023-04-29T02:21:53;7.82;;;4.82;;
31990;SDS011;18508;49.386;8.370;2023-04-29T02:24:21;7.13;;;4.60;;
31990;SDS011;18508;49.386;8.370;2023-04-29T02:26:49;7.82;;;4.85;;
31990;SDS011;18508;49.386;8.370;2023-04-29T02:29:19;7.00;;;4.43;;
31990;SDS011;18508;49.386;8.370;2023-04-29T02:31:51;6.25;;;4.32;;
31990;SDS011;18508;49.386;8.370;2023-04-29T02:34:19;5.40;;;3.88;;
31990;SDS011;18508;49.386;8.370;2023-04-29T02:36:49;7.18;;;4.03;;
31990;SDS011;18508;49.386;8.370;2023-04-29T02:39:19;5.93;;;3.53;;
31990;SDS011;18508;49.386;8.370;2023-04-29T02:41:47;6.18;;;3.40;;
31990;SDS011;18508;49.386;8.370;2023-04-29T02:44:16;6.93;;;3.97;;
31990;SDS011;18508;49.386;8.370;2023-04-29T02:46:45;5.70;;;3.75;;
31990;SDS011;18508;49.386;8.370;2023-04-29T02:49:14;8.27;;;3.35;;
31990;SDS011;18508;49.386;8.370;2023-04-29T02:51:42;5.43;;;3.83;;
31990;SDS011;18508;49.386;8.370;2023-04-29T02:54:10;5.78;;;3.20;;
31990;SDS011;18508;49.386;8.370;2023-04-29T02:56:39;5.18;;;2.97;;
31990;SDS011;18508;49.386;8.370;2023-04-29T02:59:07;5.65;;;2.95;;
31990;SDS011;18508;49.386;8.370;2023-04-29T03:01:36;4.88;;;2.88;;
31990;SDS011;18508;49.386;8.370;2023-04-29T03:04:07;5.32;;;3.83;;
31990;SDS011;18508;49.386;8.370;2023-04-29T03:06:36;4.80;;;3.17;;
31990;SDS011;18508;49.386;8.370;2023-04-29T03:09:04;5.25;;;3.00;;
31990;SDS011;18508;49.386;8.370;2023-04-29T03:11:32;5.53;;;3.20;;
31990;SDS011;18508;49.386;8.370;2023-04-29T03:14:01;5.88;;;3.05;;
31990;SDS011;18508;49.386;8.370;2023-04-29T03:16:29;5.50;;;3.10;;
31990;SDS011;18508;49.386;8.370;2023-04-29T03:18:58;4.47;;;3.03;;
31990;SDS011;18508;49.386;8.370;2023-04-29T03:21:28;5.00;;;3.03;;
31990;SDS011;18508;49.386;8.370;2023-04-29T03:23:58;5.15;;;2.88;;
31990;SDS011;18508;49.386;8.370;2023-04-29T03:26:26;4.72;;;2.95;;
31990;SDS011;18508;49.386;8.370;2023-04-29T03:28:55;4.53;;;3.00;;
31990;SDS011;18508;49.386;8.370;2023-04-29T03:31:24;4.55;;;3.25;;
31990;SDS011;18508;49.386;8.370;2023-04-29T03:33:52;5.30;;;3.33;;
31990;SDS011;18508;49.386;8.370;2023-04-29T03:36:21;10.10;;;3.50;;
31990;SDS011;18508;49.386;8.370;2023-04-29T03:38:52;6.60;;;2.90;;
31990;SDS011;18508;49.386;8.370;2023-04-29T03:41:20;5.47;;;3.22;;
31990;SDS011;18508;49.386;8.370;2023-04-29T03:43:49;4.97;;;3.33;;
31990;SDS011;18508;49.386;8.370;2023-04-29T03:46:18;5.00;;;3.35;;
31990;SDS011;18508;49.386;8.370;2023-04-29T03:48:47;5.53;;;3.30;;
31990;SDS011;18508;49.386;8.370;2023-04-29T03:51:16;5.95;;;3.38;;
31990;SDS011;18508;49.386;8.370;2023-04-29T03:53:44;5.63;;;3.30;;
31990;SDS011;18508;49.386;8.370;2023-04-29T03:56:17;6.50;;;3.17;;
31990;SDS011;18508;49.386;8.370;2023-04-29T03:58:45;4.95;;;3.00;;
31990;SDS011;18508;49.386;8.370;2023-04-29T04:01:14;5.25;;;2.58;;
31990;SDS011;18508;49.386;8.370;2023-04-29T04:03:42;4.60;;;2.80;;
31990;SDS011;18508;49.386;8.370;2023-04-29T04:06:12;4.30;;;2.90;;
31990;SDS011;18508;49.386;8.370;2023-04-29T04:08:40;4.68;;;2.45;;
31990;SDS011;18508;49.386;8.370;2023-04-29T04:11:08;5.10;;;2.78;;
31990;SDS011;18508;49.386;8.370;2023-04-29T04:13:41;3.90;;;2.50;;
31990;SDS011;18508;49.386;8.370;2023-04-29T04:16:10;5.38;;;2.80;;
31990;SDS011;18508;49.386;8.370;2023-04-29T04:18:39;5.28;;;2.60;;
31990;SDS011;18508;49.386;8.370;2023-04-29T04:21:07;3.78;;;2.30;;
31990;SDS011;18508;49.386;8.370;2023-04-29T04:23:36;3.85;;;2.53;;
31990;SDS011;18508;49.386;8.370;2023-04-29T04:26:05;4.25;;;2.78;;
31990;SDS011;18508;49.386;8.370;2023-04-29T04:28:34;5.60;;;2.83;;
31990;SDS011;18508;49.386;8.370;2023-04-29T04:31:05;6.25;;;2.63;;
31990;SDS011;18508;49.386;8.370;2023-04-29T04:33:33;3.30;;;2.20;;
31990;SDS011;18508;49.386;8.370;2023-04-29T04:36:01;4.47;;;2.63;;
31990;SDS011;18508;49.386;8.370;2023-04-29T04:38:30;5.47;;;2.97;;
31990;SDS011;18508;49.386;8.370;2023-04-29T04:40:59;5.57;;;2.60;;
31990;SDS011;18508;49.386;8.370;2023-04-29T04:43:27;3.78;;;2.60;;
31990;SDS011;18508;49.386;8.370;2023-04-29T04:45:56;3.55;;;2.38;;
31990;SDS011;18508;49.386;8.370;2023-04-29T04:48:26;6.03;;;3.05;;
31990;SDS011;18508;49.386;8.370;2023-04-29T04:50:54;6.70;;;2.53;;
31990;SDS011;18508;49.386;8.370;2023-04-29T04:53:22;5.57;;;2.67;;
31990;SDS011;18508;49.386;8.370;2023-04-29T04:55:50;5.28;;;2.88;;
31990;SDS011;18508;49.386;8.370;2023-04-29T04:58:18;4.75;;;3.20;;
31990;SDS011;18508;49.386;8.370;2023-04-29T05:00:46;4.03;;;2.80;;
31990;SDS011;18508;49.386;8.370;2023-04-29T05:03:14;4.13;;;2.65;;
31990;SDS011;18508;49.386;8.370;2023-04-29T05:05:45;4.05;;;2.60;;
31990;SDS011;18508;49.386;8.370;2023-04-29T05:08:19;13.90;;;10.45;;
31990;SDS011;18508;49.386;8.370;2023-04-29T05:10:47;13.77;;;9.77;;
31990;SDS011;18508;49.386;8.370;2023-04-29T05:13:16;7.25;;;5.43;;
31990;SDS011;18508;49.386;8.370;2023-04-29T05:15:44;10.13;;;8.38;;
31990;SDS011;18508;49.386;8.370;2023-04-29T05:18:17;6.90;;;4.63;;
31990;SDS011;18508;49.386;8.370;2023-04-29T05:20:48;6.18;;;3.47;;
31990;SDS011;18508;49.386;8.370;2023-04-29T05:23:19;5.80;;;4.03;;
31990;SDS011;18508;49.386;8.370;2023-04-29T05:25:49;4.70;;;2.75;;
31990;SDS011;18508;49.386;8.370;2023-04-29T05:28:17;5.07;;;3.10;;
31990;SDS011;18508;49.386;8.370;2023-04-29T05:30:45;6.70;;;3.08;;
31990;SDS011;18508;49.386;8.370;2023-04-29T05:33:17;6.32;;;2.90;;
31990;SDS011;18508;49.386;8.370;2023-04-29T05:35:45;4.40;;;2.80;;
31990;SDS011;18508;49.386;8.370;2023-04-29T05:38:15;3.53;;;2.40;;
31990;SDS011;18508;49.386;8.370;2023-04-29T05:40:44;3.58;;;2.55;;
31990;SDS011;18508;49.386;8.370;2023-04-29T05:43:15;5.05;;;2.67;;
31990;SDS011;18508;49.386;8.370;2023-04-29T05:45:45;5.82;;;2.47;;
31990;SDS011;18508;49.386;8.370;2023-04-29T05:48:15;4.28;;;2.42;;
31990;SDS011;18508;49.386;8.370;2023-04-29T05:50:45;5.65;;;2.42;;
31990;SDS011;18508;49.386;8.370;2023-04-29T05:53:15;5.03;;;2.40;;
31990;SDS011;18508;49.386;8.370;2023-04-29T05:55:43;6.43;;;2.28;;
31990;SDS011;18508;49.386;8.370;2023-04-29T05:58:14;3.90;;;2.63;;
31990;SDS011;18508;49.386;8.370;2023-04-29T06:00:42;5.22;;;2.60;;
31990;SDS011;18508;49.386;8.370;2023-04-29T06:03:11;4.72;;;2.92;;
31990;SDS011;18508;49.386;8.370;2023-04-29T06:05:39;4.72;;;2.85;;
31990;SDS011;18508;49.386;8.370;2023-04-29T06:08:09;3.75;;;2.30;;
31990;SDS011;18508;49.386;8.370;2023-04-29T06:10:37;5.63;;;2.33;;
31990;SDS011;18508;49.386;8.370;2023-04-29T06:13:06;4.50;;;2.38;;
31990;SDS011;18508;49.386;8.370;2023-04-29T06:15:34;4.30;;;2.90;;
31990;SDS011;18508;49.386;8.370;2023-04-29T06:18:02;4.15;;;2.78;;
31990;SDS011;18508;49.386;8.370;2023-04-29T06:20:31;3.97;;;2.40;;
31990;SDS011;18508;49.386;8.370;2023-04-29T06:23:02;6.03;;;3.00;;
31990;SDS011;18508;49.386;8.370;2023-04-29T06:25:33;4.68;;;2.65;;
31990;SDS011;18508;49.386;8.370;2023-04-29T06:28:02;5.25;;;2.83;;
31990;SDS011;18508;49.386;8.370;2023-04-29T06:30:30;4.10;;;2.80;;
31990;SDS011;18508;49.386;8.370;2023-04-29T06:32:59;3.95;;;2.38;;
31990;SDS011;18508;49.386;8.370;2023-04-29T06:35:27;4.07;;;2.38;;
31990;SDS011;18508;49.386;8.370;2023-04-29T06:37:55;5.50;;;3.00;;
31990;SDS011;18508;49.386;8.370;2023-04-29T06:40:23;6.05;;;2.80;;
31990;SDS011;18508;49.386;8.370;2023-04-29T06:42:54;4.60;;;2.70;;
31990;SDS011;18508;49.386;8.370;2023-04-29T06:45:23;5.25;;;3.25;;
31990;SDS011;18508;49.386;8.370;2023-04-29T06:47:51;5.53;;;3.10;;
31990;SDS011;18508;49.386;8.370;2023-04-29T06:50:20;4.85;;;3.05;;
31990;SDS011;18508;49.386;8.370;2023-04-29T06:52:48;5.07;;;2.88;;
31990;SDS011;18508;49.386;8.370;2023-04-29T06:55:16;4.03;;;2.67;;
31990;SDS011;18508;49.386;8.370;2023-04-29T06:57:46;6.22;;;3.00;;
31990;SDS011;18508;49.386;8.370;2023-04-29T07:00:17;4.43;;;2.63;;
31990;SDS011;18508;49.386;8.370;2023-04-29T07:02:48;4.97;;;2.88;;
31990;SDS011;18508;49.386;8.370;2023-04-29T07:05:16;6.47;;;3.65;;
31990;SDS011;18508;49.386;8.370;2023-04-29T07:07:44;5.70;;;3.72;;
31990;SDS011;18508;49.386;8.370;2023-04-29T07:10:12;5.18;;;2.95;;
31990;SDS011;18508;49.386;8.370;2023-04-29T07:12:43;5.45;;;3.22;;
31990;SDS011;18508;49.386;8.370;2023-04-29T07:15:11;6.68;;;3.60;;
31990;SDS011;18508;49.386;8.370;2023-04-29T07:17:41;4.90;;;3.50;;
31990;SDS011;18508;49.386;8.370;2023-04-29T07:20:09;6.70;;;3.95;;
31990;SDS011;18508;49.386;8.370;2023-04-29T07:22:38;6.38;;;3.95;;
31990;SDS011;18508;49.386;8.370;2023-04-29T07:25:07;5.78;;;3.65;;
31990;SDS011;18508;49.386;8.370;2023-04-29T07:27:36;5.35;;;3.28;;
31990;SDS011;18508;49.386;8.370;2023-04-29T07:30:05;6.13;;;3.80;;
31990;SDS011;18508;49.386;8.370;2023-04-29T07:32:34;7.70;;;4.80;;
31990;SDS011;18508;49.386;8.370;2023-04-29T07:35:04;10.15;;;6.75;;
31990;SDS011;18508;49.386;8.370;2023-04-29T07:37:33;14.50;;;9.05;;
31990;SDS011;18508;49.386;8.370;2023-04-29T07:40:02;14.20;;;9.20;;
31990;SDS011;18508;49.386;8.370;2023-04-29T07:42:31;16.50;;;9.20;;
31990;SDS011;18508;49.386;8.370;2023-04-29T07:45:00;15.15;;;8.40;;
31990;SDS011;18508;49.386;8.370;2023-04-29T07:47:28;14.23;;;9.43;;
31990;SDS011;18508;49.386;8.370;2023-04-29T07:49:57;13.20;;;8.50;;
31990;SDS011;18508;49.386;8.370;2023-04-29T07:52:27;15.82;;;8.90;;
31990;SDS011;18508;49.386;8.370;2023-04-29T07:54:55;17.95;;;9.88;;
31990;SDS011;18508;49.386;8.370;2023-04-29T07:57:23;16.00;;;9.27;;
31990;SDS011;18508;49.386;8.370;2023-04-29T07:59:51;16.05;;;9.32;;
31990;SDS011;18508;49.386;8.370;2023-04-29T08:02:20;16.58;;;9.02;;
31990;SDS011;18508;49.386;8.370;2023-04-29T08:04:50;15.43;;;9.27;;
31990;SDS011;18508;49.386;8.370;2023-04-29T08:07:21;15.65;;;9.15;;
31990;SDS011;18508;49.386;8.370;2023-04-29T08:09:51;16.05;;;9.50;;
31990;SDS011;18508;49.386;8.370;2023-04-29T08:12:20;15.00;;;9.75;;
31990;SDS011;18508;49.386;8.370;2023-04-29T08:14:48;16.58;;;9.52;;
31990;SDS011;18508;49.386;8.370;2023-04-29T08:17:16;15.52;;;9.00;;
31990;SDS011;18508;49.386;8.370;2023-04-29T08:19:45;14.73;;;8.50;;
31990;SDS011;18508;49.386;8.370;2023-04-29T08:22:13;13.80;;;8.52;;
31990;SDS011;18508;49.386;8.370;2023-04-29T08:24:42;13.65;;;8.15;;
31990;SDS011;18508;49.386;8.370;2023-04-29T08:27:12;13.10;;;7.13;;
31990;SDS011;18508;49.386;8.370;2023-04-29T08:29:40;9.90;;;6.07;;
31990;SDS011;18508;49.386;8.370;2023-04-29T08:32:08;10.30;;;6.10;;
31990;SDS011;18508;49.386;8.370;2023-04-29T08:34:37;11.95;;;6.18;;
31990;SDS011;18508;49.386;8.370;2023-04-29T08:37:06;10.07;;;5.30;;
31990;SDS011;18508;49.386;8.370;2023-04-29T08:39:36;9.27;;;5.15;;
31990;SDS011;18508;49.386;8.370;2023-04-29T08:42:06;8.73;;;5.40;;
31990;SDS011;18508;49.386;8.370;2023-04-29T08:44:37;9.18;;;5.40;;
31990;SDS011;18508;49.386;8.370;2023-04-29T08:47:06;9.02;;;5.03;;
31990;SDS011;18508;49.386;8.370;2023-04-29T08:49:35;9.98;;;5.35;;
31990;SDS011;18508;49.386;8.370;2023-04-29T08:52:04;9.23;;;5.35;;
31990;SDS011;18508;49.386;8.370;2023-04-29T08:54:32;11.57;;;6.60;;
31990;SDS011;18508;49.386;8.370;2023-04-29T08:57:01;11.82;;;7.30;;
31990;SDS011;18508;49.386;8.370;2023-04-29T08:59:32;9.00;;;5.63;;
31990;SDS011;18508;49.386;8.370;2023-04-29T09:02:02;12.02;;;6.05;;
31990;SDS011;18508;49.386;8.370;2023-04-29T09:04:36;10.07;;;6.00;;
31990;SDS011;18508;49.386;8.370;2023-04-29T09:07:08;10.23;;;5.93;;
31990;SDS011;18508;49.386;8.370;2023-04-29T09:09:38;9.02;;;5.25;;
31990;SDS011;18508;49.386;8.370;2023-04-29T09:12:06;10.73;;;5.97;;
31990;SDS011;18508;49.386;8.370;2023-04-29T09:14:34;11.60;;;6.40;;
31990;SDS011;18508;49.386;8.370;2023-04-29T09:17:04;10.10;;;5.72;;
31990;SDS011;18508;49.386;8.370;2023-04-29T09:19:33;10.80;;;6.03;;
31990;SDS011;18508;49.386;8.370;2023-04-29T09:22:02;9.02;;;5.65;;
31990;SDS011;18508;49.386;8.370;2023-04-29T09:24:32;8.73;;;5.57;;
31990;SDS011;18508;49.386;8.370;2023-04-29T09:27:01;8.63;;;5.25;;
31990;SDS011;18508;49.386;8.370;2023-04-29T09:29:29;9.82;;;5.80;;
31990;SDS011;18508;49.386;8.370;2023-04-29T09:31:59;10.73;;;6.07;;
31990;SDS011;18508;49.386;8.370;2023-04-29T09:34:32;10.73;;;5.80;;
31990;SDS011;18508;49.386;8.370;2023-04-29T09:37:03;9.43;;;5.22;;
31990;SDS011;18508;49.386;8.370;2023-04-29T09:39:50;7.78;;;4.93;;
31990;SDS011;18508;49.386;8.370;2023-04-29T09:42:18;10.05;;;5.60;;
31990;SDS011;18508;49.386;8.370;2023-04-29T09:44:46;17.05;;;5.15;;
31990;SDS011;18508;49.386;8.370;2023-04-29T09:47:15;8.50;;;4.88;;
31990;SDS011;18508;49.386;8.370;2023-04-29T09:49:44;8.25;;;4.78;;
31990;SDS011;18508;49.386;8.370;2023-04-29T09:52:15;13.00;;;6.07;;
31990;SDS011;18508;49.386;8.370;2023-04-29T09:54:43;11.15;;;5.78;;
31990;SDS011;18508;49.386;8.370;2023-04-29T09:57:12;10.80;;;5.75;;
31990;SDS011;18508;49.386;8.370;2023-04-29T09:59:44;9.60;;;5.90;;
31990;SDS011;18508;49.386;8.370;2023-04-29T10:02:15;8.00;;;4.93;;
31990;SDS011;18508;49.386;8.370;2023-04-29T10:04:47;9.18;;;6.05;;
31990;SDS011;18508;49.386;8.370;2023-04-29T10:07:23;8.50;;;5.78;;
31990;SDS011;18508;49.386;8.370;2023-04-29T10:09:54;10.18;;;5.43;;
31990;SDS011;18508;49.386;8.370;2023-04-29T10:12:24;8.35;;;5.00;;
31990;SDS011;18508;49.386;8.370;2023-04-29T10:14:54;9.10;;;5.20;;
31990;SDS011;18508;49.386;8.370;2023-04-29T10:17:31;10.48;;;6.13;;
31990;SDS011;18508;49.386;8.370;2023-04-29T10:20:05;9.48;;;5.15;;
31990;SDS011;18508;49.386;8.370;2023-04-29T10:22:35;7.38;;;4.80;;
31990;SDS011;18508;49.386;8.370;2023-04-29T10:25:12;8.40;;;5.00;;
31990;SDS011;18508;49.386;8.370;2023-04-29T10:27:42;7.78;;;4.65;;
31990;SDS011;18508;49.386;8.370;2023-04-29T10:30:13;8.23;;;4.80;;
31990;SDS011;18508;49.386;8.370;2023-04-29T10:32:43;7.63;;;4.55;;
31990;SDS011;18508;49.386;8.370;2023-04-29T10:35:17;7.78;;;4.78;;
31990;SDS011;18508;49.386;8.370;2023-04-29T10:37:49;7.22;;;3.88;;
31990;SDS011;18508;49.386;8.370;2023-04-29T10:40:21;7.78;;;4.85;;
31990;SDS011;18508;49.386;8.370;2023-04-29T10:42:54;9.50;;;5.50;;
31990;SDS011;18508;49.386;8.370;2023-04-29T10:45:23;8.68;;;5.15;;
31990;SDS011;18508;49.386;8.370;2023-04-29T10:48:11;7.10;;;4.65;;
31990;SDS011;18508;49.386;8.370;2023-04-29T10:51:12;8.35;;;4.50;;
31990;SDS011;18508;49.386;8.370;2023-04-29T10:53:57;11.65;;;6.55;;
31990;SDS011;18508;49.386;8.370;2023-04-29T10:56:39;8.35;;;5.13;;
31990;SDS011;18508;49.386;8.370;2023-04-29T10:59:09;7.68;;;4.18;;
31990;SDS011;18508;49.386;8.370;2023-04-29T11:01:40;9.50;;;5.03;;
31990;SDS011;18508;49.386;8.370;2023-04-29T11:04:16;6.57;;;4.00;;
31990;SDS011;18508;49.386;8.370;2023-04-29T11:06:51;7.13;;;4.60;;
31990;SDS011;18508;49.386;8.370;2023-04-29T11:09:23;10.32;;;4.95;;
31990;SDS011;18508;49.386;8.370;2023-04-29T11:11:59;8.32;;;4.90;;
31990;SDS011;18508;49.386;8.370;2023-04-29T11:14:32;5.43;;;3.42;;
31990;SDS011;18508;49.386;8.370;2023-04-29T11:17:03;5.45;;;3.58;;
31990;SDS011;18508;49.386;8.370;2023-04-29T11:19:35;5.97;;;3.58;;
31990;SDS011;18508;49.386;8.370;2023-04-29T11:22:10;5.95;;;3.80;;
31990;SDS011;18508;49.386;8.370;2023-04-29T11:24:50;5.30;;;3.90;;
31990;SDS011;18508;49.386;8.370;2023-04-29T11:27:21;7.72;;;3.78;;
31990;SDS011;18508;49.386;8.370;2023-04-29T11:29:52;6.25;;;3.85;;
31990;SDS011;18508;49.386;8.370;2023-04-29T11:32:26;7.80;;;3.95;;
31990;SDS011;18508;49.386;8.370;2023-04-29T11:35:06;7.05;;;4.00;;
31990;SDS011;18508;49.386;8.370;2023-04-29T11:37:37;8.07;;;4.43;;
31990;SDS011;18508;49.386;8.370;2023-04-29T11:40:07;8.27;;;5.05;;
31990;SDS011;18508;49.386;8.370;2023-04-29T11:42:40;7.65;;;4.60;;
31990;SDS011;18508;49.386;8.370;2023-04-29T11:45:10;5.93;;;4.28;;
31990;SDS011;18508;49.386;8.370;2023-04-29T11:47:41;7.72;;;4.97;;
31990;SDS011;18508;49.386;8.370;2023-04-29T11:50:11;7.45;;;4.63;;
31990;SDS011;18508;49.386;8.370;2023-04-29T11:52:43;6.25;;;4.03;;
31990;SDS011;18508;49.386;8.370;2023-04-29T11:55:13;6.60;;;4.47;;
31990;SDS011;18508;49.386;8.370;2023-04-29T11:57:42;7.30;;;4.35;;
31990;SDS011;18508;49.386;8.370;2023-04-29T12:00:10;7.82;;;4.35;;
31990;SDS011;18508;49.386;8.370;2023-04-29T12:02:43;6.43;;;3.90;;
31990;SDS011;18508;49.386;8.370;2023-04-29T12:05:13;6.40;;;4.18;;
31990;SDS011;18508;49.386;8.370;2023-04-29T12:07:44;7.65;;;4.47;;
31990;SDS011;18508;49.386;8.370;2023-04-29T12:10:12;7.72;;;4.78;;
31990;SDS011;18508;49.386;8.370;2023-04-29T12:12:41;6.85;;;4.32;;
31990;SDS011;18508;49.386;8.370;2023-04-29T12:15:11;9.18;;;4.53;;
31990;SDS011;18508;49.386;8.370;2023-04-29T12:17:47;6.45;;;4.40;;
31990;SDS011;18508;49.386;8.370;2023-04-29T12:20:15;8.10;;;4.57;;
31990;SDS011;18508;49.386;8.370;2023-04-29T12:22:46;7.35;;;4.45;;
31990;SDS011;18508;49.386;8.370;2023-04-29T12:25:14;7.82;;;4.75;;
31990;SDS011;18508;49.386;8.370;2023-04-29T12:27:43;7.22;;;4.68;;
31990;SDS011;18508;49.386;8.370;2023-04-29T12:30:11;6.97;;;4.75;;
31990;SDS011;18508;49.386;8.370;2023-04-29T12:32:40;8.50;;;5.15;;
31990;SDS011;18508;49.386;8.370;2023-04-29T12:35:14;6.47;;;4.00;;
31990;SDS011;18508;49.386;8.370;2023-04-29T12:37:48;7.90;;;4.50;;
31990;SDS011;18508;49.386;8.370;2023-04-29T12:40:17;6.50;;;4.35;;
31990;SDS011;18508;49.386;8.370;2023-04-29T12:42:46;8.80;;;5.18;;
31990;SDS011;18508;49.386;8.370;2023-04-29T12:45:27;6.43;;;3.75;;
31990;SDS011;18508;49.386;8.370;2023-04-29T12:48:00;7.32;;;3.95;;
31990;SDS011;18508;49.386;8.370;2023-04-29T12:50:37;6.63;;;3.88;;
31990;SDS011;18508;49.386;8.370;2023-04-29T12:53:08;6.15;;;3.70;;
31990;SDS011;18508;49.386;8.370;2023-04-29T12:55:37;7.30;;;3.95;;
31990;SDS011;18508;49.386;8.370;2023-04-29T12:58:05;5.28;;;3.47;;
31990;SDS011;18508;49.386;8.370;2023-04-29T13:00:34;5.57;;;3.13;;
31990;SDS011;18508;49.386;8.370;2023-04-29T13:03:04;3.95;;;2.72;;
31990;SDS011;18508;49.386;8.370;2023-04-29T13:05:33;5.53;;;3.20;;
31990;SDS011;18508;49.386;8.370;2023-04-29T13:08:03;5.90;;;3.55;;
31990;SDS011;18508;49.386;8.370;2023-04-29T13:10:33;5.65;;;3.30;;
31990;SDS011;18508;49.386;8.370;2023-04-29T13:13:02;6.35;;;3.80;;
31990;SDS011;18508;49.386;8.370;2023-04-29T13:15:30;6.97;;;3.75;;
31990;SDS011;18508;49.386;8.370;2023-04-29T13:17:59;6.55;;;4.10;;
31990;SDS011;18508;49.386;8.370;2023-04-29T13:20:30;6.78;;;3.92;;
31990;SDS011;18508;49.386;8.370;2023-04-29T13:23:07;10.68;;;4.93;;
31990;SDS011;18508;49.386;8.370;2023-04-29T13:25:36;5.95;;;3.83;;
31990;SDS011;18508;49.386;8.370;2023-04-29T13:28:04;6.90;;;4.05;;
31990;SDS011;18508;49.386;8.370;2023-04-29T13:30:34;8.05;;;4.55;;
31990;SDS011;18508;49.386;8.370;2023-04-29T13:33:03;8.63;;;4.60;;
31990;SDS011;18508;49.386;8.370;2023-04-29T13:35:38;6.40;;;4.30;;
31990;SDS011;18508;49.386;8.370;2023-04-29T13:38:07;7.55;;;4.70;;
31990;SDS011;18508;49.386;8.370;2023-04-29T13:40:37;7.63;;;4.93;;
31990;SDS011;18508;49.386;8.370;2023-04-29T13:43:11;8.82;;;5.30;;
31990;SDS011;18508;49.386;8.370;2023-04-29T13:45:55;8.82;;;4.72;;
31990;SDS011;18508;49.386;8.370;2023-04-29T13:48:26;8.85;;;5.55;;
31990;SDS011;18508;49.386;8.370;2023-04-29T13:51:14;7.53;;;4.75;;
31990;SDS011;18508;49.386;8.370;2023-04-29T13:53:45;8.95;;;4.65;;
31990;SDS011;18508;49.386;8.370;2023-04-29T13:56:17;7.90;;;4.78;;
31990;SDS011;18508;49.386;8.370;2023-04-29T13:58:49;5.95;;;3.72;;
31990;SDS011;18508;49.386;8.370;2023-04-29T14:01:37;8.52;;;4.88;;
31990;SDS011;18508;49.386;8.370;2023-04-29T14:04:08;6.53;;;4.35;;
31990;SDS011;18508;49.386;8.370;2023-04-29T14:06:37;7.10;;;4.05;;
31990;SDS011;18508;49.386;8.370;2023-04-29T14:09:07;9.02;;;4.28;;
31990;SDS011;18508;49.386;8.370;2023-04-29T14:11:37;6.20;;;4.10;;
31990;SDS011;18508;49.386;8.370;2023-04-29T14:14:05;6.20;;;3.60;;
31990;SDS011;18508;49.386;8.370;2023-04-29T14:16:35;5.47;;;3.25;;
31990;SDS011;18508;49.386;8.370;2023-04-29T14:19:05;6.03;;;3.10;;
31990;SDS011;18508;49.386;8.370;2023-04-29T14:21:34;6.57;;;3.22;;
31990;SDS011;18508;49.386;8.370;2023-04-29T14:24:02;6.55;;;3.90;;
31990;SDS011;18508;49.386;8.370;2023-04-29T14:26:30;6.50;;;3.45;;
31990;SDS011;18508;49.386;8.370;2023-04-29T14:29:00;6.72;;;3.55;;
31990;SDS011;18508;49.386;8.370;2023-04-29T14:31:30;7.47;;;3.25;;
31990;SDS011;18508;49.386;8.370;2023-04-29T14:34:03;5.72;;;3.53;;
31990;SDS011;18508;49.386;8.370;2023-04-29T14:36:32;6.38;;;4.07;;
31990;SDS011;18508;49.386;8.370;2023-04-29T14:39:00;5.82;;;3.50;;
31990;SDS011;18508;49.386;8.370;2023-04-29T14:41:29;5.25;;;3.20;;
31990;SDS011;18508;49.386;8.370;2023-04-29T14:43:59;6.63;;;3.30;;
31990;SDS011;18508;49.386;8.370;2023-04-29T14:46:30;6.85;;;3.28;;
31990;SDS011;18508;49.386;8.370;2023-04-29T14:48:58;5.93;;;3.22;;
31990;SDS011;18508;49.386;8.370;2023-04-29T14:51:27;5.18;;;3.35;;
31990;SDS011;18508;49.386;8.370;2023-04-29T14:53:56;4.30;;;2.88;;
31990;SDS011;18508;49.386;8.370;2023-04-29T14:56:26;5.55;;;3.72;;
31990;SDS011;18508;49.386;8.370;2023-04-29T14:58:54;5.55;;;2.88;;
31990;SDS011;18508;49.386;8.370;2023-04-29T15:01:24;5.00;;;3.35;;
31990;SDS011;18508;49.386;8.370;2023-04-29T15:03:56;4.35;;;2.80;;